createdAt,value
2022-08-23T00:00:54.168Z,20.40
2022-08-23T00:01:53.201Z,20.40
2022-08-23T00:02:53.173Z,20.40
2022-08-23T00:03:53.174Z,20.41
2022-08-23T00:05:00.546Z,20.39
2022-08-23T00:05:54.101Z,20.37
2022-08-23T00:06:53.103Z,20.37
2022-08-23T00:07:53.084Z,20.36
2022-08-23T00:08:53.073Z,20.34
2022-08-23T00:09:53.073Z,20.36
2022-08-23T00:10:53.073Z,20.34
2022-08-23T00:11:53.054Z,20.34
2022-08-23T00:12:53.064Z,20.31
2022-08-23T00:13:53.035Z,20.32
2022-08-23T00:14:53.025Z,20.32
2022-08-23T00:15:53.013Z,20.32
2022-08-23T00:16:52.984Z,20.31
2022-08-23T00:17:52.993Z,20.32
2022-08-23T00:18:52.958Z,20.31
2022-08-23T00:19:53.057Z,20.31
2022-08-23T00:20:52.937Z,20.29
2022-08-23T00:21:52.933Z,20.29
2022-08-23T00:22:52.925Z,20.26
2022-08-23T00:23:52.902Z,20.25
2022-08-23T00:24:52.904Z,20.25
2022-08-23T00:25:52.865Z,20.25
2022-08-23T00:26:52.879Z,20.24
2022-08-23T00:27:52.897Z,20.22
2022-08-23T00:28:52.845Z,20.24
2022-08-23T00:29:52.837Z,20.25
2022-08-23T00:30:52.824Z,20.25
2022-08-23T00:31:52.833Z,20.24
2022-08-23T00:32:52.817Z,20.25
2022-08-23T00:33:53.797Z,20.26
2022-08-23T00:34:52.777Z,20.28
2022-08-23T00:35:52.773Z,20.31
2022-08-23T00:36:52.777Z,20.31
2022-08-23T00:38:32.096Z,20.31
2022-08-23T00:38:53.757Z,20.29
2022-08-23T00:39:52.745Z,20.29
2022-08-23T00:40:52.720Z,20.32
2022-08-23T00:41:52.709Z,20.32
2022-08-23T00:42:52.710Z,20.34
2022-08-23T00:43:52.681Z,20.34
2022-08-23T00:44:52.672Z,20.36
2022-08-23T00:45:52.649Z,20.34
2022-08-23T00:46:52.657Z,20.36
2022-08-23T00:47:52.657Z,20.36
2022-08-23T00:48:52.721Z,20.36
2022-08-23T00:49:52.628Z,20.37
2022-08-23T00:50:52.605Z,20.36
2022-08-23T00:51:53.597Z,20.37
2022-08-23T00:52:52.581Z,20.37
2022-08-23T00:53:52.573Z,20.40
2022-08-23T00:54:52.581Z,20.40
2022-08-23T00:55:52.534Z,20.40
2022-08-23T00:56:52.534Z,20.41
2022-08-23T00:57:52.553Z,20.41
2022-08-23T00:58:52.534Z,20.41
2022-08-23T00:59:52.493Z,20.40
2022-08-23T01:00:52.494Z,20.40
2022-08-23T01:01:52.532Z,20.39
2022-08-23T01:02:52.472Z,20.39
2022-08-23T01:03:59.200Z,20.37
2022-08-23T01:04:53.474Z,20.36
2022-08-23T01:05:52.414Z,20.37
2022-08-23T01:06:52.427Z,20.34
2022-08-23T01:07:52.398Z,20.34
2022-08-23T01:08:52.425Z,20.32
2022-08-23T01:09:52.382Z,20.31
2022-08-23T01:10:52.414Z,20.31
2022-08-23T01:11:52.378Z,20.31
2022-08-23T01:12:52.354Z,20.31
2022-08-23T01:13:52.337Z,20.29
2022-08-23T01:14:52.348Z,20.28
2022-08-23T01:15:52.319Z,20.29
2022-08-23T01:16:52.318Z,20.28
2022-08-23T01:17:52.289Z,20.28
2022-08-23T01:18:52.306Z,20.26
2022-08-23T01:19:52.305Z,20.26
2022-08-23T01:20:52.278Z,20.26
2022-08-23T01:21:52.241Z,20.26
2022-08-23T01:22:52.237Z,20.24
2022-08-23T01:23:52.230Z,20.26
2022-08-23T01:25:06.928Z,20.24
2022-08-23T01:25:53.206Z,20.24
2022-08-23T01:26:52.209Z,20.22
2022-08-23T01:27:52.438Z,20.22
2022-08-23T01:28:52.180Z,20.21
2022-08-23T01:29:52.163Z,20.19
2022-08-23T01:30:52.158Z,20.19
2022-08-23T01:31:52.131Z,20.18
2022-08-23T01:32:52.143Z,20.18
2022-08-23T01:33:52.102Z,20.16
2022-08-23T01:34:52.128Z,20.16
2022-08-23T01:35:52.110Z,20.14
2022-08-23T01:36:52.083Z,20.11
2022-08-23T01:37:52.063Z,20.13
2022-08-23T01:38:52.062Z,20.10
2022-08-23T01:39:52.147Z,20.11
2022-08-23T01:40:52.058Z,20.10
2022-08-23T01:41:52.017Z,20.07
2022-08-23T01:42:52.018Z,20.07
2022-08-23T01:43:52.003Z,20.06
2022-08-23T01:44:51.991Z,20.04
2022-08-23T01:45:52.050Z,20.03
2022-08-23T01:46:56.658Z,20.02
2022-08-23T01:47:52.984Z,20.02
2022-08-23T01:48:51.954Z,19.99
2022-08-23T01:49:51.942Z,19.99
2022-08-23T01:50:51.934Z,19.95
2022-08-23T01:51:51.957Z,19.94
2022-08-23T01:52:51.914Z,19.91
2022-08-23T01:53:51.885Z,19.88
2022-08-23T01:54:51.886Z,19.86
2022-08-23T01:55:51.874Z,19.82
2022-08-23T01:56:51.857Z,19.79
2022-08-23T01:57:51.853Z,19.76
2022-08-23T01:58:51.838Z,19.71
2022-08-23T01:59:51.833Z,19.69
2022-08-23T02:00:51.819Z,19.66
2022-08-23T02:01:51.817Z,19.62
2022-08-23T02:02:51.794Z,19.59
2022-08-23T02:03:58.902Z,19.55
2022-08-23T02:04:52.766Z,19.54
2022-08-23T02:06:51.761Z,19.49
2022-08-23T02:07:51.730Z,19.48
2022-08-23T02:08:52.421Z,19.45
2022-08-23T02:09:51.718Z,19.44
2022-08-23T02:10:51.699Z,19.39
2022-08-23T02:11:51.767Z,19.36
2022-08-23T02:12:51.698Z,19.31
2022-08-23T02:13:51.679Z,19.30
2022-08-23T02:14:51.659Z,19.24
2022-08-23T02:15:51.658Z,19.22
2022-08-23T02:16:58.041Z,19.19
2022-08-23T02:17:52.627Z,19.16
2022-08-23T02:18:51.630Z,19.15
2022-08-23T02:19:51.610Z,19.11
2022-08-23T02:20:51.602Z,19.08
2022-08-23T02:21:51.599Z,19.07
2022-08-23T02:22:51.573Z,19.00
2022-08-23T02:23:51.554Z,18.99
2022-08-23T02:24:51.558Z,18.95
2022-08-23T02:25:51.530Z,18.92
2022-08-23T02:26:56.490Z,18.92
2022-08-23T02:27:52.511Z,18.90
2022-08-23T02:28:51.499Z,18.88
2022-08-23T02:29:52.733Z,18.86
2022-08-23T02:30:51.502Z,18.83
2022-08-23T02:31:51.450Z,18.81
2022-08-23T02:32:51.455Z,18.77
2022-08-23T02:33:51.452Z,18.75
2022-08-23T02:35:04.616Z,18.75
2022-08-23T02:35:52.411Z,18.73
2022-08-23T02:36:51.403Z,18.71
2022-08-23T02:37:51.399Z,18.70
2022-08-23T02:38:51.383Z,18.66
2022-08-23T02:39:51.430Z,18.63
2022-08-23T02:40:52.903Z,18.62
2022-08-23T02:41:52.362Z,18.60
2022-08-23T02:42:51.344Z,18.59
2022-08-23T02:43:51.335Z,18.58
2022-08-23T02:44:51.344Z,18.55
2022-08-23T02:45:51.323Z,18.53
2022-08-23T02:46:51.296Z,18.52
2022-08-23T02:47:51.296Z,18.50
2022-08-23T02:48:51.287Z,18.49
2022-08-23T02:49:51.268Z,18.47
2022-08-23T02:50:51.276Z,18.44
2022-08-23T02:51:51.232Z,18.41
2022-08-23T02:52:51.243Z,18.38
2022-08-23T02:53:51.207Z,18.35
2022-08-23T02:54:51.224Z,18.34
2022-08-23T02:55:51.215Z,18.31
2022-08-23T02:56:51.189Z,18.28
2022-08-23T02:57:51.159Z,18.25
2022-08-23T02:58:54.238Z,18.25
2022-08-23T02:59:51.157Z,18.20
2022-08-23T03:00:51.147Z,18.19
2022-08-23T03:01:51.120Z,18.18
2022-08-23T03:02:51.115Z,18.15
2022-08-23T03:03:51.120Z,18.15
2022-08-23T03:04:51.102Z,18.13
2022-08-23T03:05:51.094Z,18.11
2022-08-23T03:06:51.077Z,18.08
2022-08-23T03:07:51.060Z,18.08
2022-08-23T03:08:51.055Z,18.04
2022-08-23T03:09:51.030Z,18.03
2022-08-23T03:10:51.048Z,18.00
2022-08-23T03:11:51.021Z,18.00
2022-08-23T03:12:51.000Z,17.97
2022-08-23T03:13:51.605Z,17.95
2022-08-23T03:14:50.992Z,17.94
2022-08-23T03:15:50.980Z,17.94
2022-08-23T03:16:50.972Z,17.90
2022-08-23T03:17:50.960Z,17.89
2022-08-23T03:18:50.941Z,17.86
2022-08-23T03:19:50.923Z,17.85
2022-08-23T03:20:50.940Z,17.83
2022-08-23T03:21:50.893Z,17.80
2022-08-23T03:22:54.633Z,17.80
2022-08-23T03:23:50.881Z,17.79
2022-08-23T03:24:50.861Z,17.78
2022-08-23T03:25:50.864Z,17.76
2022-08-23T03:26:50.844Z,17.74
2022-08-23T03:27:50.841Z,17.72
2022-08-23T03:28:50.820Z,17.72
2022-08-23T03:29:50.793Z,17.71
2022-08-23T03:30:50.841Z,17.70
2022-08-23T03:31:50.784Z,17.70
2022-08-23T03:32:50.775Z,17.67
2022-08-23T03:33:50.972Z,17.64
2022-08-23T03:34:50.764Z,17.63
2022-08-23T03:35:50.733Z,17.63
2022-08-23T03:36:50.936Z,17.60
2022-08-23T03:37:55.034Z,17.59
2022-08-23T03:38:50.720Z,17.59
2022-08-23T03:39:50.725Z,17.59
2022-08-23T03:40:50.796Z,17.59
2022-08-23T03:41:50.677Z,17.57
2022-08-23T03:42:50.676Z,17.54
2022-08-23T03:43:50.647Z,17.52
2022-08-23T03:44:50.638Z,17.51
2022-08-23T03:45:51.804Z,17.46
2022-08-23T03:46:50.649Z,17.46
2022-08-23T03:47:50.625Z,17.45
2022-08-23T03:48:50.605Z,17.42
2022-08-23T03:49:50.586Z,17.39
2022-08-23T03:50:50.597Z,17.39
2022-08-23T03:51:50.565Z,17.34
2022-08-23T03:52:50.558Z,17.36
2022-08-23T03:53:50.798Z,17.33
2022-08-23T03:54:50.537Z,17.33
2022-08-23T03:55:50.525Z,17.31
2022-08-23T03:56:50.539Z,17.29
2022-08-23T03:57:50.497Z,17.27
2022-08-23T03:58:50.493Z,17.26
2022-08-23T03:59:50.485Z,17.24
2022-08-23T04:00:50.481Z,17.22
2022-08-23T04:01:50.576Z,17.22
2022-08-23T04:02:50.449Z,17.20
2022-08-23T04:03:50.418Z,17.16
2022-08-23T04:04:50.419Z,17.16
2022-08-23T04:05:50.397Z,17.15
2022-08-23T04:06:50.430Z,17.14
2022-08-23T04:07:50.390Z,17.15
2022-08-23T04:08:50.374Z,17.12
2022-08-23T04:09:54.836Z,17.09
2022-08-23T04:10:50.350Z,17.09
2022-08-23T04:11:50.334Z,17.06
2022-08-23T04:12:50.370Z,17.05
2022-08-23T04:13:50.310Z,17.05
2022-08-23T04:14:50.314Z,17.02
2022-08-23T04:15:50.290Z,17.02
2022-08-23T04:16:50.322Z,17.01
2022-08-23T04:17:50.262Z,17.02
2022-08-23T04:18:50.261Z,17.01
2022-08-23T04:19:50.262Z,17.02
2022-08-23T04:20:50.230Z,17.04
2022-08-23T04:21:50.222Z,17.04
2022-08-23T04:22:50.223Z,17.04
2022-08-23T04:23:50.207Z,17.05
2022-08-23T04:24:50.195Z,17.02
2022-08-23T04:25:50.161Z,17.04
2022-08-23T04:26:50.174Z,17.02
2022-08-23T04:27:50.141Z,17.01
2022-08-23T04:28:50.165Z,17.01
2022-08-23T04:29:50.122Z,16.99
2022-08-23T04:30:50.147Z,16.97
2022-08-23T04:31:50.146Z,16.94
2022-08-23T04:32:50.098Z,16.96
2022-08-23T04:33:52.289Z,16.93
2022-08-23T04:34:51.446Z,16.93
2022-08-23T04:35:50.529Z,16.91
2022-08-23T04:36:55.130Z,16.90
2022-08-23T04:37:51.051Z,16.90
2022-08-23T04:38:50.034Z,16.90
2022-08-23T04:39:51.641Z,16.90
2022-08-23T04:40:50.014Z,16.91
2022-08-23T04:41:50.007Z,16.91
2022-08-23T04:42:49.986Z,16.91
2022-08-23T04:43:49.974Z,16.90
2022-08-23T04:44:49.963Z,16.90
2022-08-23T04:45:49.958Z,16.89
2022-08-23T04:46:49.934Z,16.90
2022-08-23T04:47:49.929Z,16.91
2022-08-23T04:48:49.907Z,16.93
2022-08-23T04:49:49.903Z,16.93
2022-08-23T04:50:49.915Z,16.93
2022-08-23T04:51:53.826Z,16.93
2022-08-23T04:52:49.886Z,16.93
2022-08-23T04:53:49.855Z,16.93
2022-08-23T04:54:49.852Z,16.94
2022-08-23T04:55:49.839Z,16.96
2022-08-23T04:56:52.063Z,16.94
2022-08-23T04:57:49.847Z,16.94
2022-08-23T04:58:49.795Z,16.96
2022-08-23T04:59:49.786Z,16.96
2022-08-23T05:00:51.496Z,16.96
2022-08-23T05:01:49.799Z,16.96
2022-08-23T05:02:49.771Z,16.94
2022-08-23T05:03:49.741Z,16.94
2022-08-23T05:04:49.730Z,16.94
2022-08-23T05:05:49.723Z,16.94
2022-08-23T05:06:49.707Z,16.93
2022-08-23T05:07:49.711Z,16.94
2022-08-23T05:08:49.675Z,16.94
2022-08-23T05:09:49.683Z,16.96
2022-08-23T05:10:49.650Z,16.96
2022-08-23T05:11:49.662Z,16.96
2022-08-23T05:12:49.679Z,16.96
2022-08-23T05:13:49.638Z,16.96
2022-08-23T05:14:49.619Z,16.94
2022-08-23T05:15:49.603Z,16.96
2022-08-23T05:16:49.607Z,16.97
2022-08-23T05:17:49.591Z,16.97
2022-08-23T05:18:49.570Z,17.01
2022-08-23T05:19:49.591Z,17.01
2022-08-23T05:20:49.543Z,17.02
2022-08-23T05:21:51.158Z,17.04
2022-08-23T05:22:49.542Z,17.04
2022-08-23T05:23:50.975Z,17.02
2022-08-23T05:24:50.514Z,17.04
2022-08-23T05:25:49.493Z,17.04
2022-08-23T05:26:49.471Z,17.04
2022-08-23T05:27:49.471Z,17.05
2022-08-23T05:28:49.483Z,17.04
2022-08-23T05:29:49.444Z,17.04
2022-08-23T05:30:57.167Z,17.05
2022-08-23T05:31:50.423Z,17.05
2022-08-23T05:32:49.403Z,17.06
2022-08-23T05:33:49.424Z,17.06
2022-08-23T05:34:49.385Z,17.08
2022-08-23T05:35:49.383Z,17.06
2022-08-23T05:36:55.422Z,17.08
2022-08-23T05:37:50.355Z,17.09
2022-08-23T05:38:49.365Z,17.09
2022-08-23T05:39:49.367Z,17.12
2022-08-23T05:40:49.315Z,17.14
2022-08-23T05:41:50.307Z,17.12
2022-08-23T05:42:49.824Z,17.16
2022-08-23T05:43:49.307Z,17.16
2022-08-23T05:44:49.276Z,17.19
2022-08-23T05:45:49.263Z,17.20
2022-08-23T05:46:49.256Z,17.22
2022-08-23T05:47:49.800Z,17.22
2022-08-23T05:48:49.227Z,17.23
2022-08-23T05:49:49.228Z,17.23
2022-08-23T05:50:49.221Z,17.26
2022-08-23T05:51:51.554Z,17.27
2022-08-23T05:52:51.176Z,17.29
2022-08-23T05:53:49.195Z,17.29
2022-08-23T05:54:49.161Z,17.30
2022-08-23T05:55:49.169Z,17.31
2022-08-23T05:56:49.128Z,17.33
2022-08-23T05:57:49.136Z,17.34
2022-08-23T05:58:49.136Z,17.34
2022-08-23T05:59:49.108Z,17.38
2022-08-23T06:00:49.138Z,17.38
2022-08-23T06:01:50.237Z,17.41
2022-08-23T06:02:49.088Z,17.41
2022-08-23T06:03:49.060Z,17.42
2022-08-23T06:04:49.064Z,17.44
2022-08-23T06:05:49.040Z,17.45
2022-08-23T06:06:49.020Z,17.45
2022-08-23T06:07:49.375Z,17.46
2022-08-23T06:08:49.001Z,17.48
2022-08-23T06:09:49.013Z,17.49
2022-08-23T06:10:49.032Z,17.49
2022-08-23T06:11:48.962Z,17.51
2022-08-23T06:12:48.960Z,17.51
2022-08-23T06:13:49.003Z,17.51
2022-08-23T06:14:48.953Z,17.52
2022-08-23T06:15:48.921Z,17.52
2022-08-23T06:16:50.845Z,17.56
2022-08-23T06:17:48.900Z,17.57
2022-08-23T06:18:48.877Z,17.57
2022-08-23T06:19:48.892Z,17.59
2022-08-23T06:20:48.903Z,17.60
2022-08-23T06:21:48.852Z,17.59
2022-08-23T06:22:48.832Z,17.63
2022-08-23T06:23:48.829Z,17.63
2022-08-23T06:24:48.843Z,17.64
2022-08-23T06:25:48.832Z,17.65
2022-08-23T06:26:48.784Z,17.67
2022-08-23T06:27:48.795Z,17.70
2022-08-23T06:28:50.889Z,17.71
2022-08-23T06:29:48.775Z,17.72
2022-08-23T06:30:48.821Z,17.74
2022-08-23T06:31:48.803Z,17.79
2022-08-23T06:32:48.758Z,17.79
2022-08-23T06:33:48.764Z,17.85
2022-08-23T06:34:48.720Z,17.87
2022-08-23T06:35:48.713Z,17.89
2022-08-23T06:36:48.666Z,17.90
2022-08-23T06:37:48.684Z,17.95
2022-08-23T06:38:48.659Z,18.00
2022-08-23T06:39:48.684Z,18.01
2022-08-23T06:40:48.638Z,18.04
2022-08-23T06:41:48.633Z,18.11
2022-08-23T06:42:48.845Z,18.11
2022-08-23T06:43:48.810Z,18.15
2022-08-23T06:44:48.586Z,18.18
2022-08-23T06:45:54.990Z,18.20
2022-08-23T06:46:49.653Z,18.28
2022-08-23T06:47:48.557Z,18.33
2022-08-23T06:48:48.544Z,18.35
2022-08-23T06:49:55.433Z,18.38
2022-08-23T06:50:49.537Z,18.43
2022-08-23T06:51:48.545Z,18.44
2022-08-23T06:52:48.488Z,18.47
2022-08-23T06:53:48.497Z,18.50
2022-08-23T06:54:48.477Z,18.55
2022-08-23T06:55:48.466Z,18.58
2022-08-23T06:56:48.466Z,18.62
2022-08-23T06:57:48.450Z,18.63
2022-08-23T06:58:48.429Z,18.68
2022-08-23T06:59:48.429Z,18.71
2022-08-23T07:00:48.421Z,18.75
2022-08-23T07:01:48.516Z,18.83
2022-08-23T07:02:50.085Z,18.89
2022-08-23T07:03:48.377Z,18.95
2022-08-23T07:04:48.361Z,19.00
2022-08-23T07:05:48.358Z,19.08
2022-08-23T07:06:48.337Z,19.11
2022-08-23T07:07:48.363Z,19.15
2022-08-23T07:08:48.318Z,19.19
2022-08-23T07:09:48.358Z,19.22
2022-08-23T07:10:48.281Z,19.26
2022-08-23T07:11:48.288Z,19.31
2022-08-23T07:12:48.289Z,19.37
2022-08-23T07:13:48.288Z,19.45
2022-08-23T07:14:48.248Z,19.48
2022-08-23T07:15:50.063Z,19.52
2022-08-23T07:16:48.240Z,19.56
2022-08-23T07:17:48.273Z,19.63
2022-08-23T07:18:48.203Z,19.67
2022-08-23T07:19:48.203Z,19.71
2022-08-23T07:20:48.171Z,19.76
2022-08-23T07:21:48.823Z,19.82
2022-08-23T07:22:48.166Z,19.86
2022-08-23T07:23:48.173Z,19.89
2022-08-23T07:24:48.143Z,19.91
2022-08-23T07:25:48.130Z,19.94
2022-08-23T07:26:48.131Z,19.96
2022-08-23T07:27:48.130Z,19.99
2022-08-23T07:28:48.092Z,19.99
2022-08-23T07:29:48.095Z,20.02
2022-08-23T07:30:48.071Z,20.04
2022-08-23T07:31:48.159Z,20.06
2022-08-23T07:32:48.043Z,20.07
2022-08-23T07:33:48.042Z,20.13
2022-08-23T07:34:48.037Z,20.18
2022-08-23T07:35:48.015Z,20.21
2022-08-23T07:36:48.014Z,20.26
2022-08-23T07:37:48.003Z,20.31
2022-08-23T07:38:47.978Z,20.39
2022-08-23T07:39:48.010Z,20.41
2022-08-23T07:40:47.956Z,20.50
2022-08-23T07:41:49.408Z,20.55
2022-08-23T07:42:47.940Z,20.60
2022-08-23T07:43:47.935Z,20.66
2022-08-23T07:44:47.907Z,20.72
2022-08-23T07:45:47.907Z,20.78
2022-08-23T07:46:47.938Z,20.85
2022-08-23T07:48:06.844Z,20.93
2022-08-23T07:48:54.225Z,20.99
2022-08-23T07:49:48.857Z,21.03
2022-08-23T07:50:54.548Z,21.07
2022-08-23T07:51:48.855Z,21.11
2022-08-23T07:52:47.817Z,21.18
2022-08-23T07:53:47.817Z,21.25
2022-08-23T07:54:48.511Z,21.33
2022-08-23T07:55:47.800Z,21.40
2022-08-23T07:56:47.797Z,21.48
2022-08-23T07:57:47.777Z,21.52
2022-08-23T07:58:47.750Z,21.55
2022-08-23T07:59:47.749Z,21.57
2022-08-23T08:00:47.737Z,21.60
2022-08-23T08:01:47.780Z,21.64
2022-08-23T08:02:47.808Z,21.66
2022-08-23T08:03:47.710Z,21.67
2022-08-23T08:04:47.678Z,21.70
2022-08-23T08:05:47.690Z,21.70
2022-08-23T08:06:56.119Z,21.75
2022-08-23T08:07:48.671Z,21.76
2022-08-23T08:08:47.629Z,21.77
2022-08-23T08:09:47.643Z,21.82
2022-08-23T08:10:47.610Z,21.83
2022-08-23T08:11:47.829Z,21.89
2022-08-23T08:12:47.610Z,21.92
2022-08-23T08:13:48.293Z,21.98
2022-08-23T08:14:47.593Z,22.00
2022-08-23T08:15:47.630Z,22.08
2022-08-23T08:16:47.561Z,22.14
2022-08-23T08:17:47.561Z,22.18
2022-08-23T08:18:47.534Z,22.23
2022-08-23T08:19:47.521Z,22.29
2022-08-23T08:20:47.514Z,22.33
2022-08-23T08:21:47.516Z,22.39
2022-08-23T08:22:49.962Z,22.47
2022-08-23T08:23:48.486Z,22.54
2022-08-23T08:24:47.484Z,22.60
2022-08-23T08:25:47.468Z,22.65
2022-08-23T08:26:47.434Z,22.69
2022-08-23T08:27:47.454Z,22.78
2022-08-23T08:28:47.434Z,22.85
2022-08-23T08:29:47.426Z,22.88
2022-08-23T08:30:47.407Z,22.94
2022-08-23T08:31:50.311Z,23.02
2022-08-23T08:32:48.397Z,23.08
2022-08-23T08:33:47.371Z,23.18
2022-08-23T08:34:47.358Z,23.25
2022-08-23T08:35:47.374Z,23.34
2022-08-23T08:36:48.346Z,23.40
2022-08-23T08:37:47.365Z,23.54
2022-08-23T08:38:48.477Z,23.66
2022-08-23T08:39:47.348Z,23.74
2022-08-23T08:40:47.286Z,23.92
2022-08-23T08:41:47.298Z,24.05
2022-08-23T08:42:47.278Z,24.17
2022-08-23T08:43:47.259Z,24.33
2022-08-23T08:44:47.244Z,24.35
2022-08-23T08:45:58.730Z,24.36
2022-08-23T08:46:48.272Z,24.55
2022-08-23T08:47:47.231Z,24.66
2022-08-23T08:48:47.199Z,24.81
2022-08-23T08:49:47.199Z,24.92
2022-08-23T08:50:47.179Z,24.92
2022-08-23T08:51:47.170Z,24.91
2022-08-23T08:52:47.170Z,24.89
2022-08-23T08:53:47.162Z,25.06
2022-08-23T08:54:48.267Z,25.29
2022-08-23T08:55:47.122Z,25.47
2022-08-23T08:56:47.119Z,25.66
2022-08-23T08:57:47.103Z,25.75
2022-08-23T08:58:47.104Z,26.00
2022-08-23T08:59:47.080Z,26.28
2022-08-23T09:00:47.071Z,26.37
2022-08-23T09:01:47.121Z,26.22
2022-08-23T09:02:47.074Z,26.28
2022-08-23T09:03:47.043Z,26.28
2022-08-23T09:04:47.043Z,26.09
2022-08-23T09:05:47.002Z,25.95
2022-08-23T09:06:47.003Z,26.05
2022-08-23T09:07:47.003Z,26.16
2022-08-23T09:08:46.998Z,26.07
2022-08-23T09:09:46.996Z,26.09
2022-08-23T09:10:46.966Z,26.34
2022-08-23T09:11:47.735Z,26.43
2022-08-23T09:12:46.975Z,26.62
2022-08-23T09:13:46.935Z,26.96
2022-08-23T09:14:46.923Z,26.89
2022-08-23T09:15:46.932Z,26.81
2022-08-23T09:16:46.917Z,26.71
2022-08-23T09:17:46.899Z,26.55
2022-08-23T09:18:46.887Z,26.52
2022-08-23T09:19:46.856Z,26.47
2022-08-23T09:20:46.859Z,26.33
2022-08-23T09:21:46.867Z,26.10
2022-08-23T09:22:46.847Z,26.23
2022-08-23T09:23:46.821Z,26.26
2022-08-23T09:24:46.820Z,26.37
2022-08-23T09:25:46.788Z,26.68
2022-08-23T09:26:46.788Z,26.85
2022-08-23T09:27:46.770Z,27.03
2022-08-23T09:28:47.944Z,27.25
2022-08-23T09:29:47.730Z,27.49
2022-08-23T09:30:46.744Z,27.71
2022-08-23T09:31:46.753Z,27.96
2022-08-23T09:32:46.723Z,28.07
2022-08-23T09:33:46.724Z,28.22
2022-08-23T09:34:46.702Z,28.33
2022-08-23T09:35:46.703Z,28.08
2022-08-23T09:36:46.690Z,27.92
2022-08-23T09:37:46.671Z,27.98
2022-08-23T09:38:46.664Z,28.07
2022-08-23T09:39:46.742Z,28.26
2022-08-23T09:40:46.643Z,28.47
2022-08-23T09:41:46.614Z,28.64
2022-08-23T09:42:46.615Z,28.85
2022-08-23T09:43:46.597Z,28.85
2022-08-23T09:44:46.603Z,28.79
2022-08-23T09:45:46.576Z,28.60
2022-08-23T09:46:46.564Z,28.52
2022-08-23T09:47:46.556Z,28.48
2022-08-23T09:48:46.563Z,28.51
2022-08-23T09:49:46.537Z,28.49
2022-08-23T09:50:46.529Z,28.59
2022-08-23T09:51:46.508Z,28.79
2022-08-23T09:52:46.495Z,28.82
2022-08-23T09:53:46.515Z,28.89
2022-08-23T09:54:47.641Z,28.93
2022-08-23T09:55:46.478Z,28.97
2022-08-23T09:56:46.459Z,29.02
2022-08-23T09:57:46.427Z,29.10
2022-08-23T09:58:46.439Z,29.20
2022-08-23T09:59:46.428Z,29.23
2022-08-23T10:00:46.431Z,29.23
2022-08-23T10:01:46.435Z,29.12
2022-08-23T10:02:46.403Z,29.23
2022-08-23T10:03:46.591Z,29.27
2022-08-23T10:04:46.439Z,29.26
2022-08-23T10:05:46.359Z,29.42
2022-08-23T10:06:46.369Z,29.42
2022-08-23T10:07:46.332Z,29.38
2022-08-23T10:08:46.343Z,29.34
2022-08-23T10:09:46.320Z,29.38
2022-08-23T10:10:46.311Z,29.54
2022-08-23T10:11:46.303Z,29.72
2022-08-23T10:12:46.285Z,29.82
2022-08-23T10:13:46.283Z,29.88
2022-08-23T10:14:46.276Z,29.97
2022-08-23T10:15:46.307Z,29.90
2022-08-23T10:16:46.243Z,29.76
2022-08-23T10:17:46.235Z,29.69
2022-08-23T10:18:46.244Z,29.69
2022-08-23T10:19:47.850Z,29.82
2022-08-23T10:20:46.207Z,29.84
2022-08-23T10:21:46.183Z,29.87
2022-08-23T10:22:46.187Z,29.84
2022-08-23T10:23:46.148Z,29.94
2022-08-23T10:24:46.178Z,29.93
2022-08-23T10:25:46.135Z,30.03
2022-08-23T10:26:46.128Z,30.08
2022-08-23T10:27:46.116Z,30.15
2022-08-23T10:28:46.116Z,30.19
2022-08-23T10:29:46.116Z,30.34
2022-08-23T10:30:46.148Z,30.40
2022-08-23T10:31:46.059Z,30.30
2022-08-23T10:32:46.073Z,30.31
2022-08-23T10:33:46.050Z,30.34
2022-08-23T10:34:50.377Z,30.27
2022-08-23T10:35:46.032Z,30.34
2022-08-23T10:36:46.035Z,30.43
2022-08-23T10:37:47.039Z,30.51
2022-08-23T10:38:46.012Z,30.55
2022-08-23T10:39:46.051Z,30.55
2022-08-23T10:40:46.014Z,30.62
2022-08-23T10:41:45.985Z,30.59
2022-08-23T10:42:45.952Z,30.61
2022-08-23T10:43:45.940Z,30.59
2022-08-23T10:44:45.972Z,30.55
2022-08-23T10:45:45.911Z,30.51
2022-08-23T10:46:46.055Z,30.57
2022-08-23T10:47:45.893Z,30.59
2022-08-23T10:48:45.904Z,30.57
2022-08-23T10:49:45.876Z,30.44
2022-08-23T10:50:54.645Z,30.25
2022-08-23T10:51:46.855Z,30.15
2022-08-23T10:52:45.849Z,30.13
2022-08-23T10:53:45.846Z,30.13
2022-08-23T10:54:45.836Z,30.13
2022-08-23T10:55:45.815Z,30.03
2022-08-23T10:56:51.164Z,30.05
2022-08-23T10:57:46.790Z,30.05
2022-08-23T10:58:47.365Z,30.00
2022-08-23T10:59:45.776Z,30.05
2022-08-23T11:00:45.777Z,30.16
2022-08-23T11:01:45.788Z,30.27
2022-08-23T11:02:45.795Z,30.43
2022-08-23T11:03:45.729Z,30.57
2022-08-23T11:04:45.722Z,30.75
2022-08-23T11:05:45.717Z,30.88
2022-08-23T11:06:45.700Z,30.96
2022-08-23T11:07:45.692Z,30.94
2022-08-23T11:08:47.810Z,30.80
2022-08-23T11:09:45.652Z,30.83
2022-08-23T11:10:56.469Z,30.91
2022-08-23T11:11:46.643Z,30.91
2022-08-23T11:12:45.653Z,30.94
2022-08-23T11:13:45.622Z,31.03
2022-08-23T11:14:45.624Z,31.06
2022-08-23T11:15:45.668Z,31.06
2022-08-23T11:16:45.613Z,30.97
2022-08-23T11:17:45.585Z,30.78
2022-08-23T11:18:45.568Z,30.70
2022-08-23T11:19:45.553Z,30.88
2022-08-23T11:20:45.574Z,31.07
2022-08-23T11:21:45.524Z,31.18
2022-08-23T11:22:45.533Z,31.17
2022-08-23T11:23:45.513Z,31.14
2022-08-23T11:24:45.549Z,31.00
2022-08-23T11:25:45.505Z,31.05
2022-08-23T11:26:45.478Z,31.00
2022-08-23T11:27:45.477Z,31.05
2022-08-23T11:28:45.466Z,31.06
2022-08-23T11:29:45.447Z,31.24
2022-08-23T11:30:45.489Z,31.33
2022-08-23T11:31:45.435Z,31.40
2022-08-23T11:32:45.430Z,31.34
2022-08-23T11:33:45.395Z,31.27
2022-08-23T11:34:45.401Z,31.28
2022-08-23T11:35:45.388Z,31.28
2022-08-23T11:36:45.400Z,31.25
2022-08-23T11:37:45.359Z,31.31
2022-08-23T11:38:45.348Z,31.33
2022-08-23T11:39:45.401Z,31.42
2022-08-23T11:40:45.348Z,31.43
2022-08-23T11:41:45.340Z,31.47
2022-08-23T11:42:45.319Z,31.40
2022-08-23T11:43:45.291Z,31.29
2022-08-23T11:44:45.294Z,31.27
2022-08-23T11:45:45.299Z,31.07
2022-08-23T11:46:45.311Z,30.92
2022-08-23T11:47:45.265Z,31.00
2022-08-23T11:48:45.246Z,31.17
2022-08-23T11:49:45.232Z,31.34
2022-08-23T11:50:45.226Z,31.42
2022-08-23T11:51:45.216Z,31.39
2022-08-23T11:52:45.232Z,31.31
2022-08-23T11:53:45.184Z,31.31
2022-08-23T11:54:45.191Z,31.27
2022-08-23T11:55:45.164Z,31.27
2022-08-23T11:56:46.427Z,31.07
2022-08-23T11:57:45.176Z,31.03
2022-08-23T11:58:45.143Z,31.00
2022-08-23T11:59:45.125Z,31.14
2022-08-23T12:00:45.137Z,31.14
2022-08-23T12:01:45.109Z,31.02
2022-08-23T12:02:45.251Z,31.06
2022-08-23T12:03:46.090Z,31.20
2022-08-23T12:04:45.088Z,31.24
2022-08-23T12:05:45.059Z,31.25
2022-08-23T12:06:51.001Z,31.40
2022-08-23T12:07:46.065Z,31.55
2022-08-23T12:08:45.082Z,31.62
2022-08-23T12:09:45.070Z,31.62
2022-08-23T12:10:45.022Z,31.62
2022-08-23T12:11:45.009Z,31.71
2022-08-23T12:12:47.292Z,31.85
2022-08-23T12:13:44.995Z,31.97
2022-08-23T12:14:44.969Z,32.08
2022-08-23T12:15:45.023Z,32.18
2022-08-23T12:16:49.797Z,32.30
2022-08-23T12:17:45.933Z,32.38
2022-08-23T12:18:47.744Z,32.45
2022-08-23T12:19:44.909Z,32.34
2022-08-23T12:20:48.706Z,32.33
2022-08-23T12:21:44.885Z,32.36
2022-08-23T12:22:44.893Z,32.40
2022-08-23T12:23:48.021Z,32.43
2022-08-23T12:24:44.873Z,32.38
2022-08-23T12:25:44.846Z,32.36
2022-08-23T12:26:44.846Z,32.38
2022-08-23T12:27:44.825Z,32.34
2022-08-23T12:28:44.975Z,32.40
2022-08-23T12:29:44.846Z,32.33
2022-08-23T12:30:44.951Z,32.14
2022-08-23T12:31:45.108Z,32.01
2022-08-23T12:32:44.798Z,32.04
2022-08-23T12:33:45.898Z,32.15
2022-08-23T12:34:44.918Z,32.31
2022-08-23T12:35:44.753Z,32.36
2022-08-23T12:36:44.749Z,32.37
2022-08-23T12:37:45.069Z,32.30
2022-08-23T12:38:44.718Z,32.16
2022-08-23T12:39:44.754Z,31.96
2022-08-23T12:40:44.710Z,31.70
2022-08-23T12:41:44.678Z,31.49
2022-08-23T12:42:44.677Z,31.33
2022-08-23T12:43:44.649Z,31.27
2022-08-23T12:44:44.649Z,31.14
2022-08-23T12:45:44.642Z,30.84
2022-08-23T12:46:44.681Z,30.77
2022-08-23T12:47:44.649Z,30.72
2022-08-23T12:48:44.613Z,30.78
2022-08-23T12:49:44.641Z,30.72
2022-08-23T12:50:44.596Z,30.70
2022-08-23T12:51:44.582Z,30.70
2022-08-23T12:52:44.574Z,30.70
2022-08-23T12:53:45.527Z,30.77